sensor_id;sensor_type;location;lat;lon;timestamp;P1;durP1;ratioP1;P2;durP2;ratioP2
53781;SDS011;39692;53.114;7.060;2022-09-20T00:00:49;4.75;;;1.83;;
53781;SDS011;39692;53.114;7.060;2022-09-20T00:03:16;8.68;;;2.92;;
53781;SDS011;39692;53.114;7.060;2022-09-20T00:05:43;7.28;;;2.35;;
53781;SDS011;39692;53.114;7.060;2022-09-20T00:08:13;8.02;;;2.03;;
53781;SDS011;39692;53.114;7.060;2022-09-20T00:10:40;6.95;;;1.40;;
53781;SDS011;39692;53.114;7.060;2022-09-20T00:13:08;6.25;;;1.95;;
53781;SDS011;39692;53.114;7.060;2022-09-20T00:15:40;7.60;;;2.72;;
53781;SDS011;39692;53.114;7.060;2022-09-20T00:18:07;8.60;;;2.38;;
53781;SDS011;39692;53.114;7.060;2022-09-20T00:20:33;5.70;;;1.40;;
53781;SDS011;39692;53.114;7.060;2022-09-20T00:22:59;7.97;;;1.77;;
53781;SDS011;39692;53.114;7.060;2022-09-20T00:25:25;5.60;;;2.00;;
53781;SDS011;39692;53.114;7.060;2022-09-20T00:27:50;6.72;;;2.22;;
53781;SDS011;39692;53.114;7.060;2022-09-20T00:30:16;6.35;;;2.13;;
53781;SDS011;39692;53.114;7.060;2022-09-20T00:32:42;4.82;;;2.03;;
53781;SDS011;39692;53.114;7.060;2022-09-20T00:35:07;7.32;;;1.50;;
53781;SDS011;39692;53.114;7.060;2022-09-20T00:37:37;8.07;;;2.25;;
53781;SDS011;39692;53.114;7.060;2022-09-20T00:40:07;6.85;;;2.28;;
53781;SDS011;39692;53.114;7.060;2022-09-20T00:42:36;3.55;;;1.42;;
53781;SDS011;39692;53.114;7.060;2022-09-20T00:45:06;4.97;;;1.58;;
53781;SDS011;39692;53.114;7.060;2022-09-20T00:47:44;10.02;;;2.15;;
53781;SDS011;39692;53.114;7.060;2022-09-20T00:50:22;8.60;;;2.20;;
53781;SDS011;39692;53.114;7.060;2022-09-20T00:52:50;5.85;;;1.80;;
53781;SDS011;39692;53.114;7.060;2022-09-20T00:55:22;5.72;;;2.05;;
53781;SDS011;39692;53.114;7.060;2022-09-20T00:57:48;6.00;;;1.52;;
53781;SDS011;39692;53.114;7.060;2022-09-20T01:00:14;4.93;;;2.05;;
53781;SDS011;39692;53.114;7.060;2022-09-20T01:02:42;5.63;;;1.88;;
53781;SDS011;39692;53.114;7.060;2022-09-20T01:05:11;8.88;;;1.95;;
53781;SDS011;39692;53.114;7.060;2022-09-20T01:07:39;6.72;;;1.70;;
53781;SDS011;39692;53.114;7.060;2022-09-20T01:10:06;5.95;;;1.67;;
53781;SDS011;39692;53.114;7.060;2022-09-20T01:12:32;7.80;;;2.03;;
53781;SDS011;39692;53.114;7.060;2022-09-20T01:14:59;3.97;;;1.38;;
53781;SDS011;39692;53.114;7.060;2022-09-20T01:17:28;5.03;;;1.70;;
53781;SDS011;39692;53.114;7.060;2022-09-20T01:28:18;7.38;;;1.98;;
53781;SDS011;39692;53.114;7.060;2022-09-20T01:30:51;6.30;;;1.67;;
53781;SDS011;39692;53.114;7.060;2022-09-20T01:33:24;7.18;;;1.63;;
53781;SDS011;39692;53.114;7.060;2022-09-20T01:35:57;3.97;;;1.77;;
53781;SDS011;39692;53.114;7.060;2022-09-20T01:41:10;5.65;;;1.50;;
53781;SDS011;39692;53.114;7.060;2022-09-20T01:46:37;8.13;;;1.73;;
53781;SDS011;39692;53.114;7.060;2022-09-20T01:49:28;5.80;;;1.80;;
53781;SDS011;39692;53.114;7.060;2022-09-20T02:03:14;5.65;;;1.48;;
53781;SDS011;39692;53.114;7.060;2022-09-20T02:11:39;4.40;;;1.30;;
53781;SDS011;39692;53.114;7.060;2022-09-20T02:16:55;4.20;;;1.27;;
53781;SDS011;39692;53.114;7.060;2022-09-20T02:27:22;7.95;;;1.95;;
53781;SDS011;39692;53.114;7.060;2022-09-20T02:35:50;3.10;;;1.35;;
53781;SDS011;39692;53.114;7.060;2022-09-20T02:44:18;5.93;;;1.13;;
53781;SDS011;39692;53.114;7.060;2022-09-20T02:52:06;6.07;;;2.22;;
53781;SDS011;39692;53.114;7.060;2022-09-20T02:55:02;6.65;;;1.90;;
53781;SDS011;39692;53.114;7.060;2022-09-20T03:06:43;8.27;;;1.98;;
53781;SDS011;39692;53.114;7.060;2022-09-20T03:12:18;3.17;;;1.35;;
53781;SDS011;39692;53.114;7.060;2022-09-20T03:15:15;4.90;;;1.80;;
53781;SDS011;39692;53.114;7.060;2022-09-20T03:20:40;6.07;;;1.63;;
53781;SDS011;39692;53.114;7.060;2022-09-20T03:31:22;10.63;;;1.98;;
53781;SDS011;39692;53.114;7.060;2022-09-20T03:37:04;13.43;;;5.10;;
53781;SDS011;39692;53.114;7.060;2022-09-20T03:39:50;21.90;;;8.85;;
53781;SDS011;39692;53.114;7.060;2022-09-20T03:42:45;20.17;;;10.60;;
53781;SDS011;39692;53.114;7.060;2022-09-20T03:50:32;30.75;;;17.63;;
53781;SDS011;39692;53.114;7.060;2022-09-20T03:53:25;30.10;;;20.13;;
53781;SDS011;39692;53.114;7.060;2022-09-20T04:04:13;35.25;;;19.33;;
53781;SDS011;39692;53.114;7.060;2022-09-20T04:07:11;28.88;;;17.20;;
53781;SDS011;39692;53.114;7.060;2022-09-20T04:21:09;18.80;;;10.30;;
53781;SDS011;39692;53.114;7.060;2022-09-20T04:23:40;20.92;;;8.73;;
53781;SDS011;39692;53.114;7.060;2022-09-20T04:26:07;13.32;;;5.00;;
53781;SDS011;39692;53.114;7.060;2022-09-20T04:28:34;8.90;;;3.17;;
53781;SDS011;39692;53.114;7.060;2022-09-20T04:31:38;7.75;;;3.08;;
53781;SDS011;39692;53.114;7.060;2022-09-20T04:34:13;10.45;;;3.53;;
53781;SDS011;39692;53.114;7.060;2022-09-20T04:45:11;5.32;;;2.95;;
53781;SDS011;39692;53.114;7.060;2022-09-20T04:51:01;5.90;;;2.50;;
53781;SDS011;39692;53.114;7.060;2022-09-20T04:56:40;5.95;;;1.73;;
53781;SDS011;39692;53.114;7.060;2022-09-20T04:59:39;3.35;;;1.30;;
53781;SDS011;39692;53.114;7.060;2022-09-20T05:02:25;6.32;;;2.20;;
53781;SDS011;39692;53.114;7.060;2022-09-20T05:32:23;8.63;;;2.17;;
53781;SDS011;39692;53.114;7.060;2022-09-20T05:37:32;4.80;;;1.48;;
53781;SDS011;39692;53.114;7.060;2022-09-20T05:42:43;8.50;;;1.63;;
53781;SDS011;39692;53.114;7.060;2022-09-20T05:54:28;7.03;;;1.10;;
53781;SDS011;39692;53.114;7.060;2022-09-20T05:57:13;3.90;;;1.27;;
53781;SDS011;39692;53.114;7.060;2022-09-20T06:00:01;4.13;;;1.70;;
53781;SDS011;39692;53.114;7.060;2022-09-20T06:13:40;6.15;;;1.77;;
53781;SDS011;39692;53.114;7.060;2022-09-20T06:16:24;4.03;;;1.30;;
53781;SDS011;39692;53.114;7.060;2022-09-20T06:27:20;3.33;;;1.55;;
53781;SDS011;39692;53.114;7.060;2022-09-20T06:29:51;6.13;;;1.95;;
53781;SDS011;39692;53.114;7.060;2022-09-20T06:32:22;4.15;;;2.22;;
53781;SDS011;39692;53.114;7.060;2022-09-20T06:34:48;4.85;;;1.85;;
53781;SDS011;39692;53.114;7.060;2022-09-20T06:37:36;6.55;;;2.25;;
53781;SDS011;39692;53.114;7.060;2022-09-20T06:40:37;9.50;;;3.83;;
53781;SDS011;39692;53.114;7.060;2022-09-20T06:43:25;14.02;;;6.95;;
53781;SDS011;39692;53.114;7.060;2022-09-20T06:45:51;11.73;;;8.30;;
53781;SDS011;39692;53.114;7.060;2022-09-20T06:48:17;10.40;;;6.43;;
53781;SDS011;39692;53.114;7.060;2022-09-20T06:50:43;12.32;;;6.47;;
53781;SDS011;39692;53.114;7.060;2022-09-20T06:53:11;9.57;;;5.20;;
53781;SDS011;39692;53.114;7.060;2022-09-20T06:55:43;7.97;;;5.63;;
53781;SDS011;39692;53.114;7.060;2022-09-20T06:58:10;10.85;;;6.30;;
53781;SDS011;39692;53.114;7.060;2022-09-20T07:00:36;10.98;;;7.25;;
53781;SDS011;39692;53.114;7.060;2022-09-20T07:03:04;11.18;;;6.80;;
53781;SDS011;39692;53.114;7.060;2022-09-20T07:05:30;12.40;;;10.35;;
53781;SDS011;39692;53.114;7.060;2022-09-20T07:07:56;11.68;;;8.13;;
53781;SDS011;39692;53.114;7.060;2022-09-20T07:10:23;10.48;;;3.92;;
53781;SDS011;39692;53.114;7.060;2022-09-20T07:12:54;6.53;;;2.15;;
53781;SDS011;39692;53.114;7.060;2022-09-20T07:15:25;3.83;;;1.50;;
53781;SDS011;39692;53.114;7.060;2022-09-20T07:17:52;4.18;;;1.20;;
53781;SDS011;39692;53.114;7.060;2022-09-20T07:20:18;6.13;;;1.40;;
53781;SDS011;39692;53.114;7.060;2022-09-20T07:22:44;5.28;;;1.58;;
53781;SDS011;39692;53.114;7.060;2022-09-20T07:25:11;4.82;;;1.52;;
53781;SDS011;39692;53.114;7.060;2022-09-20T07:27:37;4.32;;;1.80;;
53781;SDS011;39692;53.114;7.060;2022-09-20T07:30:04;5.47;;;1.58;;
53781;SDS011;39692;53.114;7.060;2022-09-20T07:32:30;4.72;;;1.40;;
53781;SDS011;39692;53.114;7.060;2022-09-20T07:34:56;4.97;;;1.73;;
53781;SDS011;39692;53.114;7.060;2022-09-20T07:37:22;3.67;;;1.23;;
53781;SDS011;39692;53.114;7.060;2022-09-20T07:39:47;5.43;;;1.60;;
53781;SDS011;39692;53.114;7.060;2022-09-20T07:42:13;5.07;;;1.92;;
53781;SDS011;39692;53.114;7.060;2022-09-20T07:44:39;5.72;;;2.20;;
53781;SDS011;39692;53.114;7.060;2022-09-20T07:47:06;6.13;;;1.70;;
53781;SDS011;39692;53.114;7.060;2022-09-20T07:49:34;4.75;;;1.63;;
53781;SDS011;39692;53.114;7.060;2022-09-20T07:52:00;5.07;;;1.58;;
53781;SDS011;39692;53.114;7.060;2022-09-20T07:54:27;5.10;;;1.60;;
53781;SDS011;39692;53.114;7.060;2022-09-20T07:56:52;3.47;;;1.35;;
53781;SDS011;39692;53.114;7.060;2022-09-20T07:59:18;4.32;;;1.27;;
53781;SDS011;39692;53.114;7.060;2022-09-20T08:01:44;6.07;;;1.50;;
53781;SDS011;39692;53.114;7.060;2022-09-20T08:04:10;12.60;;;1.95;;
53781;SDS011;39692;53.114;7.060;2022-09-20T08:06:37;5.13;;;1.67;;
53781;SDS011;39692;53.114;7.060;2022-09-20T08:09:05;4.10;;;1.25;;
53781;SDS011;39692;53.114;7.060;2022-09-20T08:11:31;6.70;;;1.30;;
53781;SDS011;39692;53.114;7.060;2022-09-20T08:13:58;7.20;;;1.50;;
53781;SDS011;39692;53.114;7.060;2022-09-20T08:16:25;3.40;;;1.30;;
53781;SDS011;39692;53.114;7.060;2022-09-20T08:18:56;4.78;;;1.40;;
53781;SDS011;39692;53.114;7.060;2022-09-20T08:21:24;6.00;;;2.05;;
53781;SDS011;39692;53.114;7.060;2022-09-20T08:23:51;3.20;;;1.35;;
53781;SDS011;39692;53.114;7.060;2022-09-20T08:26:19;4.70;;;1.48;;
53781;SDS011;39692;53.114;7.060;2022-09-20T08:28:50;3.20;;;1.45;;
53781;SDS011;39692;53.114;7.060;2022-09-20T08:31:17;3.55;;;1.30;;
53781;SDS011;39692;53.114;7.060;2022-09-20T08:33:45;5.38;;;1.25;;
53781;SDS011;39692;53.114;7.060;2022-09-20T08:36:13;5.43;;;1.38;;
53781;SDS011;39692;53.114;7.060;2022-09-20T08:38:47;2.90;;;1.20;;
53781;SDS011;39692;53.114;7.060;2022-09-20T08:41:14;5.35;;;1.65;;
53781;SDS011;39692;53.114;7.060;2022-09-20T08:43:47;3.72;;;1.38;;
53781;SDS011;39692;53.114;7.060;2022-09-20T08:46:30;5.60;;;0.85;;
53781;SDS011;39692;53.114;7.060;2022-09-20T08:48:59;3.13;;;1.00;;
53781;SDS011;39692;53.114;7.060;2022-09-20T08:51:29;6.15;;;1.20;;
53781;SDS011;39692;53.114;7.060;2022-09-20T08:53:56;2.72;;;0.80;;
53781;SDS011;39692;53.114;7.060;2022-09-20T08:56:22;3.60;;;0.80;;
53781;SDS011;39692;53.114;7.060;2022-09-20T08:58:52;2.83;;;0.80;;
53781;SDS011;39692;53.114;7.060;2022-09-20T09:01:22;5.10;;;0.93;;
53781;SDS011;39692;53.114;7.060;2022-09-20T09:03:50;3.88;;;0.70;;
53781;SDS011;39692;53.114;7.060;2022-09-20T09:06:18;4.68;;;0.80;;
53781;SDS011;39692;53.114;7.060;2022-09-20T09:08:47;2.88;;;0.85;;
53781;SDS011;39692;53.114;7.060;2022-09-20T09:11:16;3.10;;;0.75;;
53781;SDS011;39692;53.114;7.060;2022-09-20T09:16:21;4.40;;;0.82;;
53781;SDS011;39692;53.114;7.060;2022-09-20T09:18:49;3.03;;;1.10;;
53781;SDS011;39692;53.114;7.060;2022-09-20T09:21:20;8.30;;;1.00;;
53781;SDS011;39692;53.114;7.060;2022-09-20T09:23:51;3.33;;;0.68;;
53781;SDS011;39692;53.114;7.060;2022-09-20T09:26:21;4.78;;;0.98;;
53781;SDS011;39692;53.114;7.060;2022-09-20T09:31:38;5.30;;;1.15;;
53781;SDS011;39692;53.114;7.060;2022-09-20T09:34:08;4.32;;;0.80;;
53781;SDS011;39692;53.114;7.060;2022-09-20T09:36:51;3.60;;;1.08;;
53781;SDS011;39692;53.114;7.060;2022-09-20T09:41:51;3.60;;;0.90;;
53781;SDS011;39692;53.114;7.060;2022-09-20T09:46:47;2.95;;;0.80;;
53781;SDS011;39692;53.114;7.060;2022-09-20T09:49:21;2.75;;;0.93;;
53781;SDS011;39692;53.114;7.060;2022-09-20T09:54:33;2.83;;;0.70;;
53781;SDS011;39692;53.114;7.060;2022-09-20T10:00:09;6.72;;;1.13;;
53781;SDS011;39692;53.114;7.060;2022-09-20T10:02:47;3.22;;;0.93;;
53781;SDS011;39692;53.114;7.060;2022-09-20T10:11:39;2.22;;;0.70;;
53781;SDS011;39692;53.114;7.060;2022-09-20T10:25:19;2.42;;;0.80;;
53781;SDS011;39692;53.114;7.060;2022-09-20T10:30:47;2.78;;;1.00;;
53781;SDS011;39692;53.114;7.060;2022-09-20T10:38:49;3.05;;;1.00;;
53781;SDS011;39692;53.114;7.060;2022-09-20T10:41:31;4.93;;;0.80;;
53781;SDS011;39692;53.114;7.060;2022-09-20T10:47:06;2.75;;;0.70;;
53781;SDS011;39692;53.114;7.060;2022-09-20T10:52:10;4.60;;;0.80;;
53781;SDS011;39692;53.114;7.060;2022-09-20T11:00:24;3.00;;;0.80;;
53781;SDS011;39692;53.114;7.060;2022-09-20T11:05:39;2.80;;;0.82;;
53781;SDS011;39692;53.114;7.060;2022-09-20T11:08:22;5.03;;;0.80;;
53781;SDS011;39692;53.114;7.060;2022-09-20T11:10:53;4.20;;;1.20;;
53781;SDS011;39692;53.114;7.060;2022-09-20T11:16:16;5.05;;;0.90;;
53781;SDS011;39692;53.114;7.060;2022-09-20T11:18:53;5.65;;;1.33;;
53781;SDS011;39692;53.114;7.060;2022-09-20T11:21:30;3.20;;;0.90;;
53781;SDS011;39692;53.114;7.060;2022-09-20T11:26:51;3.90;;;1.00;;
53781;SDS011;39692;53.114;7.060;2022-09-20T11:32:01;2.47;;;0.80;;
53781;SDS011;39692;53.114;7.060;2022-09-20T11:34:53;6.95;;;1.17;;
53781;SDS011;39692;53.114;7.060;2022-09-20T11:37:21;3.92;;;1.75;;
53781;SDS011;39692;53.114;7.060;2022-09-20T11:39:52;3.65;;;0.90;;
53781;SDS011;39692;53.114;7.060;2022-09-20T11:42:34;3.65;;;1.08;;
53781;SDS011;39692;53.114;7.060;2022-09-20T11:45:04;4.97;;;1.20;;
53781;SDS011;39692;53.114;7.060;2022-09-20T11:58:05;5.05;;;1.10;;
53781;SDS011;39692;53.114;7.060;2022-09-20T12:00:45;4.97;;;0.80;;
53781;SDS011;39692;53.114;7.060;2022-09-20T12:06:00;4.00;;;0.95;;
53781;SDS011;39692;53.114;7.060;2022-09-20T12:08:31;2.75;;;0.88;;
53781;SDS011;39692;53.114;7.060;2022-09-20T12:11:06;4.68;;;1.05;;
53781;SDS011;39692;53.114;7.060;2022-09-20T12:13:34;4.75;;;0.80;;
53781;SDS011;39692;53.114;7.060;2022-09-20T12:16:14;4.95;;;1.00;;
53781;SDS011;39692;53.114;7.060;2022-09-20T12:21:19;4.32;;;1.02;;
53781;SDS011;39692;53.114;7.060;2022-09-20T12:23:58;6.10;;;1.10;;
53781;SDS011;39692;53.114;7.060;2022-09-20T12:28:52;3.70;;;1.15;;
53781;SDS011;39692;53.114;7.060;2022-09-20T12:36:19;4.35;;;1.13;;
53781;SDS011;39692;53.114;7.060;2022-09-20T12:38:45;4.40;;;1.05;;
53781;SDS011;39692;53.114;7.060;2022-09-20T12:41:17;5.90;;;1.33;;
53781;SDS011;39692;53.114;7.060;2022-09-20T12:46:19;5.22;;;1.20;;
53781;SDS011;39692;53.114;7.060;2022-09-20T12:48:50;5.90;;;1.20;;
53781;SDS011;39692;53.114;7.060;2022-09-20T12:51:34;5.00;;;1.27;;
53781;SDS011;39692;53.114;7.060;2022-09-20T12:54:18;5.50;;;1.10;;
53781;SDS011;39692;53.114;7.060;2022-09-20T12:56:43;5.75;;;1.30;;
53781;SDS011;39692;53.114;7.060;2022-09-20T12:59:23;6.97;;;1.40;;
53781;SDS011;39692;53.114;7.060;2022-09-20T13:01:51;4.18;;;1.30;;
53781;SDS011;39692;53.114;7.060;2022-09-20T13:07:22;4.88;;;1.15;;
53781;SDS011;39692;53.114;7.060;2022-09-20T13:09:48;3.78;;;1.20;;
53781;SDS011;39692;53.114;7.060;2022-09-20T13:12:14;3.85;;;1.20;;
53781;SDS011;39692;53.114;7.060;2022-09-20T13:14:41;4.78;;;1.08;;
53781;SDS011;39692;53.114;7.060;2022-09-20T13:17:25;5.57;;;1.45;;
53781;SDS011;39692;53.114;7.060;2022-09-20T13:19:55;5.38;;;1.20;;
53781;SDS011;39692;53.114;7.060;2022-09-20T13:22:29;8.55;;;1.80;;
53781;SDS011;39692;53.114;7.060;2022-09-20T13:24:58;6.70;;;1.25;;
53781;SDS011;39692;53.114;7.060;2022-09-20T13:27:26;5.13;;;1.20;;
53781;SDS011;39692;53.114;7.060;2022-09-20T13:29:53;4.10;;;1.02;;
53781;SDS011;39692;53.114;7.060;2022-09-20T13:32:29;3.05;;;0.88;;
53781;SDS011;39692;53.114;7.060;2022-09-20T13:37:56;5.43;;;1.02;;
53781;SDS011;39692;53.114;7.060;2022-09-20T13:42:57;3.28;;;0.60;;
53781;SDS011;39692;53.114;7.060;2022-09-20T13:45:24;2.92;;;0.90;;
53781;SDS011;39692;53.114;7.060;2022-09-20T13:47:52;4.38;;;1.02;;
53781;SDS011;39692;53.114;7.060;2022-09-20T13:52:49;2.90;;;0.52;;
53781;SDS011;39692;53.114;7.060;2022-09-20T13:55:26;3.55;;;0.80;;
53781;SDS011;39692;53.114;7.060;2022-09-20T13:57:53;3.38;;;0.80;;
53781;SDS011;39692;53.114;7.060;2022-09-20T14:00:20;3.83;;;0.73;;
53781;SDS011;39692;53.114;7.060;2022-09-20T14:02:47;4.28;;;0.80;;
53781;SDS011;39692;53.114;7.060;2022-09-20T14:05:14;2.75;;;0.93;;
53781;SDS011;39692;53.114;7.060;2022-09-20T14:07:42;5.75;;;1.00;;
53781;SDS011;39692;53.114;7.060;2022-09-20T14:13:13;2.83;;;0.90;;
53781;SDS011;39692;53.114;7.060;2022-09-20T14:15:40;6.22;;;0.98;;
53781;SDS011;39692;53.114;7.060;2022-09-20T14:18:10;5.82;;;1.40;;
53781;SDS011;39692;53.114;7.060;2022-09-20T14:20:37;3.25;;;0.88;;
53781;SDS011;39692;53.114;7.060;2022-09-20T14:23:04;3.75;;;0.70;;
53781;SDS011;39692;53.114;7.060;2022-09-20T14:25:30;5.70;;;0.90;;
53781;SDS011;39692;53.114;7.060;2022-09-20T14:28:05;3.83;;;1.15;;
53781;SDS011;39692;53.114;7.060;2022-09-20T14:30:33;4.45;;;0.70;;
53781;SDS011;39692;53.114;7.060;2022-09-20T14:33:00;4.55;;;0.82;;
53781;SDS011;39692;53.114;7.060;2022-09-20T14:35:27;2.40;;;0.70;;
53781;SDS011;39692;53.114;7.060;2022-09-20T14:38:04;4.45;;;0.90;;
53781;SDS011;39692;53.114;7.060;2022-09-20T14:40:39;3.10;;;0.68;;
53781;SDS011;39692;53.114;7.060;2022-09-20T14:45:33;2.10;;;0.60;;
53781;SDS011;39692;53.114;7.060;2022-09-20T14:55:24;2.17;;;0.60;;
53781;SDS011;39692;53.114;7.060;2022-09-20T14:57:58;3.88;;;0.50;;
53781;SDS011;39692;53.114;7.060;2022-09-20T15:00:25;2.40;;;0.43;;
53781;SDS011;39692;53.114;7.060;2022-09-20T15:02:51;2.60;;;0.70;;
53781;SDS011;39692;53.114;7.060;2022-09-20T15:05:22;3.47;;;0.60;;
53781;SDS011;39692;53.114;7.060;2022-09-20T15:07:50;3.45;;;0.70;;
53781;SDS011;39692;53.114;7.060;2022-09-20T15:10:16;4.63;;;1.25;;
53781;SDS011;39692;53.114;7.060;2022-09-20T15:12:43;2.70;;;0.90;;
53781;SDS011;39692;53.114;7.060;2022-09-20T15:15:12;4.22;;;1.10;;
53781;SDS011;39692;53.114;7.060;2022-09-20T15:17:40;4.25;;;1.00;;
53781;SDS011;39692;53.114;7.060;2022-09-20T15:20:14;4.90;;;1.10;;
53781;SDS011;39692;53.114;7.060;2022-09-20T15:25:10;6.78;;;1.42;;
53781;SDS011;39692;53.114;7.060;2022-09-20T15:27:37;3.30;;;1.00;;
53781;SDS011;39692;53.114;7.060;2022-09-20T15:30:03;4.32;;;1.10;;
53781;SDS011;39692;53.114;7.060;2022-09-20T15:32:30;3.92;;;1.25;;
53781;SDS011;39692;53.114;7.060;2022-09-20T15:34:56;7.93;;;1.23;;
53781;SDS011;39692;53.114;7.060;2022-09-20T15:37:22;6.07;;;1.50;;
53781;SDS011;39692;53.114;7.060;2022-09-20T15:39:48;3.97;;;1.38;;
53781;SDS011;39692;53.114;7.060;2022-09-20T15:42:15;4.45;;;1.10;;
53781;SDS011;39692;53.114;7.060;2022-09-20T15:44:41;5.05;;;1.30;;
53781;SDS011;39692;53.114;7.060;2022-09-20T15:47:07;3.97;;;1.08;;
53781;SDS011;39692;53.114;7.060;2022-09-20T15:49:33;6.18;;;1.10;;
53781;SDS011;39692;53.114;7.060;2022-09-20T15:51:59;5.22;;;1.65;;
53781;SDS011;39692;53.114;7.060;2022-09-20T15:54:26;3.75;;;1.00;;
53781;SDS011;39692;53.114;7.060;2022-09-20T15:56:52;6.22;;;1.33;;
53781;SDS011;39692;53.114;7.060;2022-09-20T15:59:18;4.70;;;1.67;;
53781;SDS011;39692;53.114;7.060;2022-09-20T16:01:47;3.75;;;1.10;;
53781;SDS011;39692;53.114;7.060;2022-09-20T16:04:17;4.68;;;1.10;;
53781;SDS011;39692;53.114;7.060;2022-09-20T16:06:44;6.78;;;1.70;;
53781;SDS011;39692;53.114;7.060;2022-09-20T16:09:12;3.38;;;1.45;;
53781;SDS011;39692;53.114;7.060;2022-09-20T16:11:38;5.55;;;1.40;;
53781;SDS011;39692;53.114;7.060;2022-09-20T16:14:04;6.45;;;1.80;;
53781;SDS011;39692;53.114;7.060;2022-09-20T16:16:31;4.45;;;1.45;;
53781;SDS011;39692;53.114;7.060;2022-09-20T16:18:57;5.13;;;1.23;;
53781;SDS011;39692;53.114;7.060;2022-09-20T16:21:42;6.83;;;1.40;;
53781;SDS011;39692;53.114;7.060;2022-09-20T16:24:11;5.53;;;1.60;;
53781;SDS011;39692;53.114;7.060;2022-09-20T16:26:37;4.03;;;1.23;;
53781;SDS011;39692;53.114;7.060;2022-09-20T16:29:03;4.90;;;1.25;;
53781;SDS011;39692;53.114;7.060;2022-09-20T16:36:50;4.63;;;1.55;;
53781;SDS011;39692;53.114;7.060;2022-09-20T16:39:18;6.55;;;1.55;;
53781;SDS011;39692;53.114;7.060;2022-09-20T16:41:45;5.40;;;1.27;;
53781;SDS011;39692;53.114;7.060;2022-09-20T16:44:12;4.80;;;1.33;;
53781;SDS011;39692;53.114;7.060;2022-09-20T16:46:38;4.63;;;1.42;;
53781;SDS011;39692;53.114;7.060;2022-09-20T16:49:05;4.45;;;1.40;;
53781;SDS011;39692;53.114;7.060;2022-09-20T16:51:34;5.57;;;1.65;;
53781;SDS011;39692;53.114;7.060;2022-09-20T16:54:04;6.82;;;1.65;;
53781;SDS011;39692;53.114;7.060;2022-09-20T16:56:31;6.03;;;1.85;;
53781;SDS011;39692;53.114;7.060;2022-09-20T16:58:58;5.88;;;1.75;;
53781;SDS011;39692;53.114;7.060;2022-09-20T17:01:24;6.00;;;1.65;;
53781;SDS011;39692;53.114;7.060;2022-09-20T17:03:50;5.72;;;1.98;;
53781;SDS011;39692;53.114;7.060;2022-09-20T17:06:16;6.10;;;1.73;;
53781;SDS011;39692;53.114;7.060;2022-09-20T17:08:43;4.88;;;1.05;;
53781;SDS011;39692;53.114;7.060;2022-09-20T17:11:12;5.47;;;1.45;;
53781;SDS011;39692;53.114;7.060;2022-09-20T17:13:39;4.60;;;1.52;;
53781;SDS011;39692;53.114;7.060;2022-09-20T17:16:08;7.47;;;1.45;;
53781;SDS011;39692;53.114;7.060;2022-09-20T17:18:34;6.85;;;1.45;;
53781;SDS011;39692;53.114;7.060;2022-09-20T17:21:06;6.53;;;1.73;;
53781;SDS011;39692;53.114;7.060;2022-09-20T17:23:33;3.65;;;1.10;;
53781;SDS011;39692;53.114;7.060;2022-09-20T17:26:06;5.63;;;1.52;;
53781;SDS011;39692;53.114;7.060;2022-09-20T17:28:34;5.03;;;1.47;;
53781;SDS011;39692;53.114;7.060;2022-09-20T17:31:00;5.30;;;1.70;;
53781;SDS011;39692;53.114;7.060;2022-09-20T17:33:26;6.47;;;1.73;;
53781;SDS011;39692;53.114;7.060;2022-09-20T17:35:55;8.70;;;1.35;;
53781;SDS011;39692;53.114;7.060;2022-09-20T17:38:24;5.38;;;2.08;;
53781;SDS011;39692;53.114;7.060;2022-09-20T17:41:11;5.43;;;1.60;;
53781;SDS011;39692;53.114;7.060;2022-09-20T17:43:37;3.63;;;1.45;;
53781;SDS011;39692;53.114;7.060;2022-09-20T17:46:17;6.35;;;1.77;;
53781;SDS011;39692;53.114;7.060;2022-09-20T17:48:47;5.85;;;1.88;;
53781;SDS011;39692;53.114;7.060;2022-09-20T17:51:16;5.05;;;1.65;;
53781;SDS011;39692;53.114;7.060;2022-09-20T17:53:43;7.90;;;2.05;;
53781;SDS011;39692;53.114;7.060;2022-09-20T17:56:09;9.35;;;1.73;;
53781;SDS011;39692;53.114;7.060;2022-09-20T17:58:36;7.93;;;1.58;;
53781;SDS011;39692;53.114;7.060;2022-09-20T18:01:07;4.72;;;1.60;;
53781;SDS011;39692;53.114;7.060;2022-09-20T18:03:36;6.85;;;1.95;;
53781;SDS011;39692;53.114;7.060;2022-09-20T18:06:16;4.88;;;1.75;;
53781;SDS011;39692;53.114;7.060;2022-09-20T18:08:44;3.58;;;1.30;;
53781;SDS011;39692;53.114;7.060;2022-09-20T18:11:12;5.72;;;1.67;;
53781;SDS011;39692;53.114;7.060;2022-09-20T18:13:38;6.10;;;2.05;;
53781;SDS011;39692;53.114;7.060;2022-09-20T18:16:07;6.85;;;1.70;;
53781;SDS011;39692;53.114;7.060;2022-09-20T18:18:35;4.25;;;1.48;;
53781;SDS011;39692;53.114;7.060;2022-09-20T18:21:07;6.40;;;1.67;;
53781;SDS011;39692;53.114;7.060;2022-09-20T18:23:47;5.70;;;1.45;;
53781;SDS011;39692;53.114;7.060;2022-09-20T18:26:15;5.65;;;1.88;;
53781;SDS011;39692;53.114;7.060;2022-09-20T18:31:24;5.10;;;1.85;;
53781;SDS011;39692;53.114;7.060;2022-09-20T18:34:00;5.05;;;1.48;;
53781;SDS011;39692;53.114;7.060;2022-09-20T18:36:28;7.35;;;1.77;;
53781;SDS011;39692;53.114;7.060;2022-09-20T18:38:55;6.38;;;1.60;;
53781;SDS011;39692;53.114;7.060;2022-09-20T18:41:22;4.47;;;1.63;;
53781;SDS011;39692;53.114;7.060;2022-09-20T18:43:53;7.75;;;2.40;;
53781;SDS011;39692;53.114;7.060;2022-09-20T18:46:20;5.30;;;1.67;;
53781;SDS011;39692;53.114;7.060;2022-09-20T18:48:54;7.45;;;2.10;;
53781;SDS011;39692;53.114;7.060;2022-09-20T18:51:21;6.82;;;1.73;;
53781;SDS011;39692;53.114;7.060;2022-09-20T18:53:48;4.25;;;1.42;;
53781;SDS011;39692;53.114;7.060;2022-09-20T18:59:03;5.07;;;1.45;;
53781;SDS011;39692;53.114;7.060;2022-09-20T19:06:54;6.50;;;2.00;;
53781;SDS011;39692;53.114;7.060;2022-09-20T19:12:18;5.13;;;2.00;;
53781;SDS011;39692;53.114;7.060;2022-09-20T19:26:22;4.80;;;1.20;;
53781;SDS011;39692;53.114;7.060;2022-09-20T19:28:49;3.35;;;1.00;;
53781;SDS011;39692;53.114;7.060;2022-09-20T19:33:50;11.30;;;2.08;;
53781;SDS011;39692;53.114;7.060;2022-09-20T19:36:23;5.07;;;1.77;;
53781;SDS011;39692;53.114;7.060;2022-09-20T19:39:01;4.18;;;1.45;;
53781;SDS011;39692;53.114;7.060;2022-09-20T19:47:07;4.45;;;1.40;;
53781;SDS011;39692;53.114;7.060;2022-09-20T19:52:18;5.72;;;1.33;;
53781;SDS011;39692;53.114;7.060;2022-09-20T19:54:45;8.43;;;1.77;;
53781;SDS011;39692;53.114;7.060;2022-09-20T19:57:15;5.55;;;1.63;;
53781;SDS011;39692;53.114;7.060;2022-09-20T19:59:47;9.00;;;2.05;;
53781;SDS011;39692;53.114;7.060;2022-09-20T20:02:14;5.00;;;1.45;;
53781;SDS011;39692;53.114;7.060;2022-09-20T20:04:41;4.22;;;1.50;;
53781;SDS011;39692;53.114;7.060;2022-09-20T20:10:15;3.00;;;1.52;;
53781;SDS011;39692;53.114;7.060;2022-09-20T20:15:52;4.75;;;1.67;;
53781;SDS011;39692;53.114;7.060;2022-09-20T20:21:00;5.20;;;1.40;;
53781;SDS011;39692;53.114;7.060;2022-09-20T20:26:44;3.88;;;1.23;;
53781;SDS011;39692;53.114;7.060;2022-09-20T20:29:09;3.67;;;1.25;;
53781;SDS011;39692;53.114;7.060;2022-09-20T20:31:36;4.68;;;2.17;;
53781;SDS011;39692;53.114;7.060;2022-09-20T20:34:01;6.28;;;2.65;;
53781;SDS011;39692;53.114;7.060;2022-09-20T20:36:27;6.20;;;2.25;;
53781;SDS011;39692;53.114;7.060;2022-09-20T20:38:53;3.83;;;2.00;;
53781;SDS011;39692;53.114;7.060;2022-09-20T20:41:19;6.25;;;2.38;;
53781;SDS011;39692;53.114;7.060;2022-09-20T20:43:46;3.78;;;1.77;;
53781;SDS011;39692;53.114;7.060;2022-09-20T20:46:16;5.60;;;1.63;;
53781;SDS011;39692;53.114;7.060;2022-09-20T20:48:45;4.65;;;1.52;;
53781;SDS011;39692;53.114;7.060;2022-09-20T20:51:12;3.65;;;1.60;;
53781;SDS011;39692;53.114;7.060;2022-09-20T20:53:45;4.18;;;1.55;;
53781;SDS011;39692;53.114;7.060;2022-09-20T20:56:13;3.13;;;1.35;;
53781;SDS011;39692;53.114;7.060;2022-09-20T20:58:44;3.45;;;1.10;;
53781;SDS011;39692;53.114;7.060;2022-09-20T21:01:15;4.50;;;1.33;;